createdAt,value
2018-08-10T00:00:10.236Z,19.40
2018-08-10T00:02:38.589Z,19.30
2018-08-10T00:05:07.375Z,19.30
2018-08-10T00:07:35.572Z,19.30
2018-08-10T00:10:04.466Z,19.20
2018-08-10T00:12:32.550Z,19.20
2018-08-10T00:15:00.607Z,19.10
2018-08-10T00:17:28.629Z,19.10
2018-08-10T00:19:56.677Z,19.10
2018-08-10T00:22:24.729Z,19.00
2018-08-10T00:24:52.772Z,19.00
2018-08-10T00:27:20.816Z,18.90
2018-08-10T00:29:48.860Z,18.90
2018-08-10T00:32:16.908Z,18.90
2018-08-10T00:34:44.960Z,18.90
2018-08-10T00:37:13.001Z,18.80
2018-08-10T00:39:41.052Z,18.70
2018-08-10T00:42:09.096Z,18.70
2018-08-10T00:44:37.153Z,18.60
2018-08-10T00:47:05.216Z,18.60
2018-08-10T00:49:33.273Z,18.60
2018-08-10T00:52:01.318Z,18.50
2018-08-10T00:54:29.379Z,18.50
2018-08-10T00:56:57.404Z,18.40
2018-08-10T00:59:25.451Z,18.50
2018-08-10T01:01:53.570Z,18.50
2018-08-10T01:04:21.548Z,18.50
2018-08-10T01:06:49.596Z,18.40
2018-08-10T01:09:17.680Z,18.40
2018-08-10T01:11:45.703Z,18.40
2018-08-10T01:14:13.749Z,18.40
2018-08-10T01:16:41.788Z,18.30
2018-08-10T01:19:09.875Z,18.20
2018-08-10T01:21:37.913Z,18.20
2018-08-10T01:24:05.982Z,18.10
2018-08-10T01:26:33.996Z,18.00
2018-08-10T01:29:02.065Z,18.00
2018-08-10T01:31:30.084Z,17.90
2018-08-10T01:33:58.221Z,17.90
2018-08-10T01:36:26.256Z,17.80
2018-08-10T01:38:54.289Z,17.80
2018-08-10T01:41:22.340Z,17.70
2018-08-10T01:43:50.385Z,17.70
2018-08-10T01:46:18.436Z,17.60
2018-08-10T01:48:46.477Z,17.60
2018-08-10T01:51:14.528Z,17.50
2018-08-10T01:53:42.696Z,17.40
2018-08-10T01:56:10.741Z,17.40
2018-08-10T01:58:38.775Z,17.40
2018-08-10T02:01:06.816Z,17.40
2018-08-10T02:03:34.852Z,17.30
2018-08-10T02:06:02.906Z,17.20
2018-08-10T02:08:30.944Z,17.20
2018-08-10T02:10:59.004Z,17.20
2018-08-10T02:13:27.045Z,17.20
2018-08-10T02:15:55.088Z,17.10
2018-08-10T02:18:23.132Z,17.10
2018-08-10T02:20:51.216Z,17.10
2018-08-10T02:23:19.237Z,17.10
2018-08-10T02:25:47.387Z,17.00
2018-08-10T02:28:15.412Z,17.00
2018-08-10T02:30:43.465Z,16.90
2018-08-10T02:33:11.504Z,16.90
2018-08-10T02:35:39.550Z,16.90
2018-08-10T02:38:07.589Z,16.80
2018-08-10T02:40:35.642Z,16.80
2018-08-10T02:43:03.685Z,16.70
2018-08-10T02:48:06.148Z,16.60
2018-08-10T02:50:34.275Z,16.50
2018-08-10T02:53:02.292Z,16.50
2018-08-10T02:55:30.373Z,16.50
2018-08-10T02:57:58.413Z,16.50
2018-08-10T03:00:26.457Z,16.50
2018-08-10T03:02:54.496Z,16.50
2018-08-10T03:05:22.535Z,16.50
2018-08-10T03:07:50.577Z,16.40
2018-08-10T03:10:18.708Z,16.30
2018-08-10T03:12:46.835Z,16.30
2018-08-10T03:15:16.054Z,16.30
2018-08-10T03:18:21.924Z,16.30
2018-08-10T03:20:49.965Z,16.10
2018-08-10T03:23:18.005Z,16.10
2018-08-10T03:25:46.044Z,16.00
2018-08-10T03:28:14.096Z,15.90
2018-08-10T03:30:42.136Z,15.90
2018-08-10T03:33:10.173Z,15.80
2018-08-10T03:35:38.216Z,15.80
2018-08-10T03:38:06.244Z,15.70
2018-08-10T03:40:34.372Z,15.70
2018-08-10T03:43:02.384Z,15.60
2018-08-10T03:45:30.424Z,15.60
2018-08-10T03:47:58.464Z,15.60
2018-08-10T03:50:26.496Z,15.50
2018-08-10T03:52:54.544Z,15.50
2018-08-10T03:55:22.579Z,15.50
2018-08-10T03:57:50.625Z,15.40
2018-08-10T04:00:18.668Z,15.40
2018-08-10T04:02:46.708Z,15.30
2018-08-10T04:05:14.755Z,15.30
2018-08-10T04:07:42.951Z,15.30
2018-08-10T04:10:11.390Z,15.30
2018-08-10T04:12:39.596Z,15.30
2018-08-10T04:15:09.919Z,15.20
2018-08-10T04:17:37.980Z,15.20
2018-08-10T04:20:06.390Z,15.20
2018-08-10T04:22:34.428Z,15.20
2018-08-10T04:25:02.496Z,15.10
2018-08-10T04:27:30.556Z,15.10
2018-08-10T04:29:58.620Z,15.10
2018-08-10T04:32:26.692Z,15.00
2018-08-10T04:34:54.795Z,15.00
2018-08-10T04:37:22.881Z,15.00
2018-08-10T04:39:50.916Z,15.00
2018-08-10T04:42:18.976Z,15.00
2018-08-10T04:44:47.031Z,15.00
2018-08-10T04:47:15.104Z,15.00
2018-08-10T04:49:43.160Z,15.10
2018-08-10T04:52:11.224Z,15.10
2018-08-10T04:54:39.285Z,15.10
2018-08-10T04:57:07.458Z,15.10
2018-08-10T04:59:35.489Z,15.10
2018-08-10T05:02:03.584Z,15.10
2018-08-10T05:04:31.637Z,15.10
2018-08-10T05:06:59.695Z,15.00
2018-08-10T05:09:27.755Z,15.00
2018-08-10T05:11:55.834Z,15.10
2018-08-10T05:14:23.946Z,15.10
2018-08-10T05:16:51.987Z,15.10
2018-08-10T05:19:20.042Z,15.10
2018-08-10T05:21:48.105Z,15.10
2018-08-10T05:24:16.181Z,15.10
2018-08-10T05:26:44.244Z,15.10
2018-08-10T05:29:12.310Z,15.20
2018-08-10T05:31:40.372Z,15.20
2018-08-10T05:34:08.433Z,15.30
2018-08-10T05:36:36.509Z,15.30
2018-08-10T05:39:07.512Z,15.40
2018-08-10T05:41:35.711Z,15.50
2018-08-10T05:44:03.832Z,15.60
2018-08-10T05:46:31.828Z,15.70
2018-08-10T05:48:59.896Z,15.80
2018-08-10T05:51:27.960Z,15.90
2018-08-10T05:53:56.044Z,16.00
2018-08-10T05:56:24.099Z,16.10
2018-08-10T05:58:52.161Z,16.20
2018-08-10T06:01:20.223Z,16.30
2018-08-10T06:03:48.359Z,16.40
2018-08-10T06:06:16.348Z,16.50
2018-08-10T06:08:44.413Z,16.50
2018-08-10T06:11:12.559Z,16.60
2018-08-10T06:13:40.589Z,16.80
2018-08-10T06:16:08.673Z,16.90
2018-08-10T06:18:36.716Z,17.10
2018-08-10T06:21:04.753Z,17.30
2018-08-10T06:23:32.796Z,17.50
2018-08-10T06:26:00.831Z,17.80
2018-08-10T06:28:28.945Z,18.20
2018-08-10T06:30:57.087Z,18.90
2018-08-10T06:33:25.129Z,19.80
2018-08-10T06:35:53.163Z,20.90
2018-08-10T06:38:21.209Z,22.20
2018-08-10T06:40:49.242Z,22.90
2018-08-10T06:43:17.454Z,23.60
2018-08-10T06:45:45.554Z,24.00
2018-08-10T06:48:13.744Z,24.80
2018-08-10T06:50:41.785Z,25.70
2018-08-10T06:53:09.879Z,26.30
2018-08-10T06:55:37.963Z,26.70
2018-08-10T06:58:06.063Z,27.00
2018-08-10T07:00:34.089Z,27.00
2018-08-10T07:03:02.113Z,26.60
2018-08-10T07:05:30.156Z,26.30
2018-08-10T07:07:58.208Z,26.90
2018-08-10T07:10:26.589Z,27.00
2018-08-10T07:13:01.141Z,27.00
2018-08-10T07:15:29.150Z,27.60
2018-08-10T07:17:57.201Z,28.20
2018-08-10T07:20:25.236Z,28.40
2018-08-10T07:22:53.288Z,28.70
2018-08-10T07:25:21.327Z,29.50
2018-08-10T07:27:49.390Z,30.10
2018-08-10T07:30:17.436Z,30.70
2018-08-10T07:32:45.515Z,30.90
2018-08-10T07:35:13.585Z,31.30
2018-08-10T07:37:42.128Z,31.90
2018-08-10T07:40:10.168Z,32.30
2018-08-10T07:42:38.229Z,33.10
2018-08-10T07:45:06.283Z,34.10
2018-08-10T07:47:34.332Z,34.00
2018-08-10T07:50:02.387Z,34.20
2018-08-10T07:52:30.436Z,34.30
2018-08-10T07:54:58.485Z,34.50
2018-08-10T07:57:26.654Z,35.30
2018-08-10T08:00:01.644Z,35.50
2018-08-10T08:02:29.692Z,35.90
2018-08-10T08:04:57.757Z,36.00
2018-08-10T08:07:25.801Z,35.20
2018-08-10T08:09:53.878Z,33.70
2018-08-10T08:12:21.948Z,32.40
2018-08-10T08:14:50.107Z,32.10
2018-08-10T08:17:18.168Z,32.90
2018-08-10T08:19:46.431Z,32.30
2018-08-10T08:22:18.776Z,31.10
2018-08-10T08:24:46.852Z,30.40
2018-08-10T08:27:16.219Z,31.50
2018-08-10T08:29:44.220Z,32.90
2018-08-10T08:32:12.648Z,32.70
2018-08-10T08:34:41.081Z,33.60
2018-08-10T08:37:09.537Z,33.80
2018-08-10T08:40:50.412Z,32.20
2018-08-10T08:43:30.669Z,31.10
2018-08-10T08:46:00.537Z,29.10
2018-08-10T08:48:29.644Z,27.80
2018-08-10T08:50:59.148Z,27.50
2018-08-10T08:53:27.196Z,27.10
2018-08-10T08:56:00.540Z,26.30
2018-08-10T08:58:29.157Z,25.70
2018-08-10T09:00:57.215Z,25.40
2018-08-10T09:03:37.000Z,26.70
2018-08-10T09:06:05.870Z,26.80
2018-08-10T09:08:33.940Z,27.80
2018-08-10T09:11:03.488Z,29.20
2018-08-10T09:14:44.712Z,30.00
2018-08-10T09:17:13.015Z,30.70
2018-08-10T09:19:41.804Z,30.30
2018-08-10T09:22:10.189Z,30.00
2018-08-10T09:24:38.389Z,30.30
2018-08-10T09:27:06.453Z,31.30
2018-08-10T09:29:34.959Z,31.20
2018-08-10T09:32:03.245Z,31.00
2018-08-10T09:34:31.363Z,30.50
2018-08-10T09:36:59.921Z,30.70
2018-08-10T09:39:28.716Z,30.60
2018-08-10T09:41:57.041Z,28.90
2018-08-10T09:44:25.101Z,27.80
2018-08-10T09:46:53.204Z,27.80
2018-08-10T09:49:21.256Z,28.70
2018-08-10T09:51:49.385Z,30.00
2018-08-10T09:54:17.415Z,30.50
2018-08-10T09:56:45.465Z,30.10
2018-08-10T09:59:13.508Z,29.90
2018-08-10T10:01:47.113Z,30.10
2018-08-10T10:04:15.724Z,30.20
2018-08-10T10:06:43.835Z,28.80
2018-08-10T10:09:12.204Z,28.20
2018-08-10T10:11:40.253Z,26.90
2018-08-10T10:14:08.971Z,27.00
2018-08-10T10:16:37.226Z,27.70
2018-08-10T10:19:05.425Z,28.20
2018-08-10T10:21:33.469Z,28.30
2018-08-10T10:24:01.615Z,27.80
2018-08-10T10:26:29.698Z,27.20
2018-08-10T10:28:57.901Z,27.40
2018-08-10T10:31:25.941Z,27.40
2018-08-10T10:33:53.994Z,27.40
2018-08-10T10:36:22.039Z,26.90
2018-08-10T10:38:50.123Z,26.50
2018-08-10T10:41:18.172Z,26.50
2018-08-10T10:43:46.204Z,27.20
2018-08-10T10:46:14.248Z,27.50
2018-08-10T10:48:42.289Z,27.00
2018-08-10T10:51:10.447Z,26.30
2018-08-10T10:53:38.461Z,26.30
2018-08-10T10:56:06.613Z,26.10
2018-08-10T10:58:34.698Z,25.80
2018-08-10T11:01:02.730Z,25.90
2018-08-10T11:03:30.777Z,25.70
2018-08-10T11:05:58.824Z,25.50
2018-08-10T11:08:26.877Z,25.50
2018-08-10T11:10:55.021Z,25.50
2018-08-10T11:13:23.105Z,25.50
2018-08-10T11:15:51.168Z,25.60
2018-08-10T11:18:19.377Z,25.80
2018-08-10T11:20:47.401Z,25.70
2018-08-10T11:23:15.556Z,25.80
2018-08-10T11:25:43.726Z,26.10
2018-08-10T11:28:11.629Z,25.90
2018-08-10T11:30:39.672Z,25.80
2018-08-10T11:33:07.707Z,25.40
2018-08-10T11:35:35.777Z,25.30
2018-08-10T11:38:03.846Z,25.80
2018-08-10T11:40:31.978Z,26.40
2018-08-10T11:43:00.022Z,27.10
2018-08-10T11:45:28.261Z,27.60
2018-08-10T11:47:56.313Z,27.00
2018-08-10T11:50:24.382Z,26.50
2018-08-10T11:52:52.421Z,26.30
2018-08-10T11:55:20.536Z,26.40
2018-08-10T11:57:48.580Z,26.20
2018-08-10T12:00:16.715Z,25.90
2018-08-10T12:02:44.728Z,26.10
2018-08-10T12:05:13.520Z,26.60
2018-08-10T12:07:41.584Z,26.80
2018-08-10T12:10:09.696Z,26.40
2018-08-10T12:12:37.887Z,26.10
2018-08-10T12:15:07.948Z,26.20
2018-08-10T12:17:36.276Z,26.20
2018-08-10T12:20:04.668Z,26.20
2018-08-10T12:22:32.708Z,26.20
2018-08-10T12:25:00.765Z,26.20
2018-08-10T12:27:28.823Z,26.20
2018-08-10T12:29:56.905Z,26.20
2018-08-10T12:32:24.991Z,25.70
2018-08-10T12:34:53.076Z,25.20
2018-08-10T12:37:21.123Z,25.10
2018-08-10T12:39:49.251Z,25.20
2018-08-10T12:42:17.284Z,25.40
2018-08-10T12:44:45.347Z,25.20
2018-08-10T12:47:13.400Z,24.80
2018-08-10T12:49:41.481Z,24.70
2018-08-10T12:52:09.516Z,24.50
2018-08-10T12:54:37.654Z,24.50
2018-08-10T12:57:05.761Z,24.60
2018-08-10T12:59:33.748Z,24.90
2018-08-10T13:02:01.811Z,25.20
2018-08-10T13:04:29.871Z,25.60
2018-08-10T13:06:57.933Z,26.30
2018-08-10T13:09:25.998Z,26.70
2018-08-10T13:11:54.067Z,26.70
2018-08-10T13:14:22.116Z,26.70
2018-08-10T13:16:50.176Z,26.40
2018-08-10T13:19:18.256Z,26.00
2018-08-10T13:21:46.333Z,25.80
2018-08-10T13:24:14.405Z,25.80
2018-08-10T13:26:42.525Z,25.50
2018-08-10T13:29:10.633Z,25.30
2018-08-10T13:31:38.718Z,25.40
2018-08-10T13:34:06.748Z,25.70
2018-08-10T13:36:34.897Z,25.80
2018-08-10T13:39:02.996Z,26.00
2018-08-10T13:41:31.158Z,26.30
2018-08-10T13:43:59.192Z,26.60
2018-08-10T13:46:27.328Z,27.00
2018-08-10T13:48:55.376Z,27.50
2018-08-10T13:51:23.447Z,28.10
2018-08-10T13:53:51.512Z,28.40
2018-08-10T13:56:19.596Z,28.80
2018-08-10T13:58:47.868Z,28.90
2018-08-10T14:01:15.808Z,28.90
2018-08-10T14:03:43.896Z,29.30
2018-08-10T14:06:12.073Z,29.40
2018-08-10T14:08:40.144Z,29.50
2018-08-10T14:11:08.279Z,29.60
2018-08-10T14:13:36.362Z,29.60
2018-08-10T14:16:04.424Z,29.60
2018-08-10T14:18:32.744Z,29.50
2018-08-10T14:21:00.879Z,29.60
2018-08-10T14:23:28.924Z,29.60
2018-08-10T14:25:57.094Z,29.70
2018-08-10T14:28:25.179Z,30.00
2018-08-10T14:30:53.366Z,29.90
2018-08-10T14:33:21.453Z,29.40
2018-08-10T14:35:49.448Z,28.80
2018-08-10T14:38:17.488Z,28.30
2018-08-10T14:40:45.536Z,28.30
2018-08-10T14:45:48.224Z,28.70
2018-08-10T14:48:16.309Z,29.00
2018-08-10T14:50:44.354Z,29.30
2018-08-10T14:53:12.397Z,29.30
2018-08-10T14:55:40.457Z,29.20
2018-08-10T14:58:08.524Z,28.90
2018-08-10T15:00:36.580Z,28.60
2018-08-10T15:03:04.922Z,28.40
2018-08-10T15:05:32.936Z,28.40
2018-08-10T15:08:01.027Z,28.10
2018-08-10T15:10:29.093Z,28.10
2018-08-10T15:12:57.336Z,28.20
2018-08-10T15:15:25.226Z,28.20
2018-08-10T15:17:53.296Z,28.30
2018-08-10T15:20:21.619Z,28.30
2018-08-10T15:22:49.703Z,28.60
2018-08-10T15:25:17.893Z,28.60
2018-08-10T15:27:45.967Z,28.70
2018-08-10T15:30:16.124Z,28.50
2018-08-10T15:32:44.232Z,28.30
2018-08-10T15:35:13.715Z,27.90
2018-08-10T15:37:41.828Z,27.70
2018-08-10T15:40:12.071Z,27.70
2018-08-10T15:42:40.149Z,27.80
2018-08-10T15:45:10.159Z,27.80
2018-08-10T15:47:38.219Z,28.00
2018-08-10T15:50:07.145Z,28.10
2018-08-10T15:52:35.317Z,28.00
2018-08-10T15:55:03.412Z,27.70
2018-08-10T15:57:31.589Z,27.50
2018-08-10T15:59:59.641Z,27.40
2018-08-10T16:02:27.884Z,27.40
2018-08-10T16:04:55.959Z,27.30
2018-08-10T16:07:24.016Z,27.30
2018-08-10T16:09:52.081Z,27.20
2018-08-10T16:12:20.177Z,27.00
2018-08-10T16:14:48.309Z,26.90
2018-08-10T16:17:16.377Z,26.80
2018-08-10T16:19:44.880Z,26.70
2018-08-10T16:22:12.944Z,26.50
2018-08-10T16:24:41.020Z,26.40
2018-08-10T16:27:09.448Z,26.20
2018-08-10T16:29:37.516Z,26.10
2018-08-10T16:32:05.588Z,26.20
2018-08-10T16:34:33.648Z,26.20
2018-08-10T16:37:01.761Z,26.20
2018-08-10T16:39:29.825Z,26.20
2018-08-10T16:41:57.933Z,26.30
2018-08-10T16:44:32.893Z,26.30
2018-08-10T16:47:00.981Z,26.40
2018-08-10T16:49:29.053Z,26.40
2018-08-10T16:51:57.481Z,26.30
2018-08-10T16:54:25.540Z,26.20
2018-08-10T16:56:53.612Z,26.10
2018-08-10T16:59:21.680Z,26.00
2018-08-10T17:01:49.782Z,25.90
2018-08-10T17:04:17.867Z,25.80
2018-08-10T17:06:45.920Z,25.60
2018-08-10T17:09:14.057Z,25.40
2018-08-10T17:11:42.144Z,25.20
2018-08-10T17:14:10.250Z,25.10
2018-08-10T17:16:38.395Z,25.00
2018-08-10T17:19:06.532Z,24.90
2018-08-10T17:21:34.584Z,24.80
2018-08-10T17:24:02.650Z,24.70
2018-08-10T17:26:30.773Z,24.60
2018-08-10T17:28:58.764Z,24.50
2018-08-10T17:31:26.901Z,24.50
2018-08-10T17:33:54.945Z,24.50
2018-08-10T17:36:23.122Z,24.40
2018-08-10T17:38:51.191Z,24.30
2018-08-10T17:41:19.270Z,24.20
2018-08-10T17:43:47.434Z,24.20
2018-08-10T17:46:15.560Z,24.10
2018-08-10T17:48:43.620Z,24.00
2018-08-10T17:51:11.673Z,24.00
2018-08-10T17:53:39.753Z,23.90
2018-08-10T17:56:07.853Z,23.80
2018-08-10T17:58:36.052Z,23.70
2018-08-10T18:01:04.101Z,23.70
2018-08-10T18:03:32.212Z,23.60
2018-08-10T18:06:00.292Z,23.50
2018-08-10T18:08:28.483Z,23.50
2018-08-10T18:10:56.512Z,23.40
2018-08-10T18:13:24.621Z,23.40
2018-08-10T18:15:52.671Z,23.30
2018-08-10T18:18:20.724Z,23.20
2018-08-10T18:20:48.769Z,23.10
2018-08-10T18:23:16.887Z,23.00
2018-08-10T18:25:45.075Z,22.90
2018-08-10T18:28:13.096Z,22.80
2018-08-10T18:30:41.448Z,22.60
2018-08-10T18:33:09.480Z,22.50
2018-08-10T18:35:37.619Z,22.50
2018-08-10T18:38:05.844Z,22.30
2018-08-10T18:40:33.895Z,22.20
2018-08-10T18:43:01.973Z,22.10
2018-08-10T18:45:30.009Z,22.10
2018-08-10T18:47:58.044Z,22.00
2018-08-10T18:50:26.231Z,22.00
2018-08-10T18:52:54.219Z,21.90
2018-08-10T18:55:23.238Z,21.90
2018-08-10T18:57:51.828Z,21.80
2018-08-10T19:00:22.028Z,21.70
2018-08-10T19:02:50.160Z,21.70
2018-08-10T19:05:18.648Z,21.60
2018-08-10T19:07:47.441Z,21.50
2018-08-10T19:10:18.596Z,21.40
2018-08-10T19:12:46.645Z,21.30
2018-08-10T19:15:14.736Z,21.30
2018-08-10T19:17:42.881Z,21.20
2018-08-10T19:20:11.692Z,21.10
2018-08-10T19:22:39.737Z,21.10
2018-08-10T19:25:09.531Z,21.00
2018-08-10T19:27:37.553Z,21.00
2018-08-10T19:30:08.305Z,20.90
2018-08-10T19:32:36.470Z,20.90
2018-08-10T19:35:05.245Z,20.80
2018-08-10T19:37:33.355Z,20.80
2018-08-10T19:40:01.543Z,20.70
2018-08-10T19:42:29.559Z,20.60
2018-08-10T19:44:57.712Z,20.60
2018-08-10T19:47:25.753Z,20.50
2018-08-10T19:49:53.882Z,20.50
2018-08-10T19:52:21.967Z,20.40
2018-08-10T19:54:49.992Z,20.30
2018-08-10T19:57:18.140Z,20.30
2018-08-10T19:59:46.236Z,20.20
2018-08-10T20:02:14.416Z,20.10
2018-08-10T20:04:42.495Z,20.00
2018-08-10T20:07:10.579Z,19.90
2018-08-10T20:09:38.651Z,19.80
2018-08-10T20:12:06.764Z,19.80
2018-08-10T20:14:34.825Z,19.70
2018-08-10T20:17:02.918Z,19.70
2018-08-10T20:19:31.000Z,19.60
2018-08-10T20:21:59.034Z,19.60
2018-08-10T20:24:27.128Z,19.50
2018-08-10T20:26:55.193Z,19.50
2018-08-10T20:29:23.272Z,19.40
2018-08-10T20:31:51.426Z,19.40
2018-08-10T20:34:19.519Z,19.30
2018-08-10T20:36:47.596Z,19.30
2018-08-10T20:39:15.721Z,19.20
2018-08-10T20:41:43.776Z,19.20
2018-08-10T20:44:11.889Z,19.20
2018-08-10T20:46:40.510Z,19.10
2018-08-10T20:49:08.635Z,19.10
2018-08-10T20:51:36.727Z,19.00
2018-08-10T20:54:04.906Z,19.00
2018-08-10T20:56:32.993Z,18.90
2018-08-10T20:59:01.037Z,18.90
2018-08-10T21:01:29.159Z,18.90
2018-08-10T21:03:57.259Z,18.80
2018-08-10T21:06:25.300Z,18.80
2018-08-10T21:08:53.413Z,18.70
2018-08-10T21:11:21.501Z,18.70
2018-08-10T21:13:49.564Z,18.60
2018-08-10T21:16:17.670Z,18.60
2018-08-10T21:18:45.713Z,18.50
2018-08-10T21:21:13.785Z,18.50
2018-08-10T21:23:42.088Z,18.50
2018-08-10T21:26:10.148Z,18.50
2018-08-10T21:28:38.236Z,18.50
2018-08-10T21:31:06.392Z,18.50
2018-08-10T21:33:34.570Z,18.50
2018-08-10T21:36:02.624Z,18.50
2018-08-10T21:38:30.683Z,18.60
2018-08-10T21:40:58.747Z,18.60
2018-08-10T21:43:26.899Z,18.50
2018-08-10T21:45:54.936Z,18.50
2018-08-10T21:48:23.049Z,18.50
2018-08-10T21:50:51.056Z,18.50
2018-08-10T21:53:19.110Z,18.50
2018-08-10T21:55:47.172Z,18.50
2018-08-10T21:58:15.258Z,18.50
2018-08-10T22:00:50.550Z,18.50
2018-08-10T22:03:19.259Z,18.40
2018-08-10T22:05:47.775Z,18.40
2018-08-10T22:08:16.165Z,18.30
2018-08-10T22:10:44.211Z,18.30
2018-08-10T22:13:17.818Z,18.30
2018-08-10T22:15:51.312Z,18.30
2018-08-10T22:18:24.727Z,18.30
2018-08-10T22:20:53.089Z,18.30
2018-08-10T22:23:21.133Z,18.20
2018-08-10T22:25:49.272Z,18.20
2018-08-10T22:28:17.312Z,18.20
2018-08-10T22:30:45.507Z,18.10
2018-08-10T22:33:13.527Z,18.10
2018-08-10T22:35:42.101Z,18.00
2018-08-10T22:38:10.384Z,18.00
2018-08-10T22:40:38.565Z,18.00
2018-08-10T22:43:06.772Z,17.90
2018-08-10T22:45:34.820Z,17.80
2018-08-10T22:48:02.880Z,17.80
2018-08-10T22:50:31.046Z,17.70
2018-08-10T22:52:59.073Z,17.70
2018-08-10T22:55:27.117Z,17.60
2018-08-10T22:57:55.155Z,17.50
2018-08-10T23:00:23.192Z,17.50
2018-08-10T23:02:51.237Z,17.50
2018-08-10T23:05:19.280Z,17.40
2018-08-10T23:07:47.360Z,17.30
2018-08-10T23:10:15.891Z,17.20
2018-08-10T23:12:44.504Z,17.10
2018-08-10T23:15:12.670Z,17.10
2018-08-10T23:17:41.283Z,17.00
2018-08-10T23:20:11.509Z,16.90
2018-08-10T23:22:39.599Z,16.90
2018-08-10T23:25:09.728Z,16.80
2018-08-10T23:27:37.792Z,16.70
2018-08-10T23:30:08.197Z,16.60
2018-08-10T23:32:36.264Z,16.50
2018-08-10T23:35:04.654Z,16.50
2018-08-10T23:37:32.751Z,16.40
2018-08-10T23:40:00.805Z,16.40
2018-08-10T23:42:28.873Z,16.40
2018-08-10T23:44:57.067Z,16.30
2018-08-10T23:47:25.148Z,16.30
2018-08-10T23:49:53.331Z,16.30
2018-08-10T23:52:21.382Z,16.20
2018-08-10T23:54:49.450Z,16.20
2018-08-10T23:57:17.586Z,16.20
2018-08-10T23:59:45.672Z,16.20
